createdAt,value
2023-03-07T00:00:02.877Z,60.92
2023-03-07T00:02:33.235Z,61.22
2023-03-07T00:05:02.816Z,60.86
2023-03-07T00:07:32.167Z,60.77
2023-03-07T00:10:00.177Z,60.24
2023-03-07T00:12:28.254Z,60.01
2023-03-07T00:14:57.094Z,60.05
2023-03-07T00:17:25.168Z,60.61
2023-03-07T00:19:53.137Z,60.03
2023-03-07T00:22:22.501Z,59.59
2023-03-07T00:24:50.485Z,59.57
2023-03-07T00:27:18.568Z,59.70
2023-03-07T00:29:46.809Z,58.56
2023-03-07T00:32:14.829Z,59.15
2023-03-07T00:34:42.775Z,59.50
2023-03-07T00:37:10.825Z,59.57
2023-03-07T00:39:40.260Z,59.48
2023-03-07T00:42:08.598Z,59.46
2023-03-07T00:44:37.126Z,59.48
2023-03-07T00:47:05.386Z,59.56
2023-03-07T00:49:33.526Z,59.55
2023-03-07T00:52:01.787Z,59.84
2023-03-07T00:54:30.650Z,59.71
2023-03-07T00:57:00.325Z,60.14
2023-03-07T00:59:28.598Z,60.18
2023-03-07T01:01:56.570Z,59.67
2023-03-07T01:04:24.638Z,59.94
2023-03-07T01:06:52.781Z,59.84
2023-03-07T01:09:20.882Z,60.68
2023-03-07T01:11:50.681Z,61.02
2023-03-07T01:14:20.513Z,60.89
2023-03-07T01:16:48.753Z,60.45
2023-03-07T01:19:16.845Z,60.50
2023-03-07T01:21:45.323Z,60.63
2023-03-07T01:24:16.200Z,59.76
2023-03-07T01:26:45.059Z,59.67
2023-03-07T01:29:13.390Z,59.97
2023-03-07T01:31:42.788Z,59.97
2023-03-07T01:34:11.062Z,59.25
2023-03-07T01:36:39.289Z,58.81
2023-03-07T01:39:13.180Z,58.91
2023-03-07T01:41:49.097Z,59.44
2023-03-07T01:44:20.784Z,59.41
2023-03-07T01:46:53.157Z,59.21
2023-03-07T01:49:27.019Z,59.50
2023-03-07T01:52:04.911Z,59.90
2023-03-07T01:54:39.015Z,59.53
2023-03-07T01:57:07.670Z,58.48
2023-03-07T01:59:40.176Z,59.18
2023-03-07T02:02:14.664Z,59.32
2023-03-07T02:04:47.120Z,60.20
2023-03-07T02:07:16.821Z,59.26
2023-03-07T02:09:49.469Z,59.66
2023-03-07T02:12:17.751Z,59.63
2023-03-07T02:14:47.874Z,59.69
2023-03-07T02:17:18.742Z,59.79
2023-03-07T02:19:59.604Z,59.91
2023-03-07T02:22:28.625Z,59.71
2023-03-07T02:25:01.076Z,59.81
2023-03-07T02:27:37.204Z,59.76
2023-03-07T02:30:07.138Z,60.38
2023-03-07T02:32:35.757Z,59.62
2023-03-07T02:35:03.894Z,59.35
2023-03-07T02:37:35.977Z,59.11
2023-03-07T02:40:09.302Z,59.93
2023-03-07T02:42:42.137Z,59.92
2023-03-07T02:45:16.450Z,59.60
2023-03-07T02:47:45.630Z,59.59
2023-03-07T02:50:17.325Z,59.24
2023-03-07T02:52:49.759Z,58.91
2023-03-07T02:55:18.099Z,59.38
2023-03-07T02:57:53.815Z,59.02
2023-03-07T03:00:22.881Z,58.87
2023-03-07T03:02:51.318Z,59.41
2023-03-07T03:05:21.257Z,59.52
2023-03-07T03:07:49.624Z,57.20
2023-03-07T03:10:18.237Z,57.39
2023-03-07T03:12:46.258Z,57.76
2023-03-07T03:15:16.029Z,58.95
2023-03-07T03:17:44.432Z,59.57
2023-03-07T03:20:13.790Z,59.67
2023-03-07T03:22:42.211Z,59.18
2023-03-07T03:25:13.291Z,60.22
2023-03-07T03:27:43.256Z,59.29
2023-03-07T03:30:15.467Z,58.71
2023-03-07T03:32:44.374Z,58.61
2023-03-07T03:35:15.618Z,57.73
2023-03-07T03:37:44.524Z,58.28
2023-03-07T03:40:17.471Z,56.57
2023-03-07T03:42:46.951Z,59.18
2023-03-07T03:45:19.515Z,58.79
2023-03-07T03:47:48.579Z,58.08
2023-03-07T03:50:17.598Z,58.39
2023-03-07T03:52:45.997Z,57.94
2023-03-07T03:55:14.367Z,58.38
2023-03-07T03:57:42.798Z,57.71
2023-03-07T04:00:14.788Z,59.16
2023-03-07T04:02:44.621Z,61.95
2023-03-07T04:05:17.088Z,62.53
2023-03-07T04:07:45.352Z,62.84
2023-03-07T04:10:13.595Z,62.17
2023-03-07T04:12:41.672Z,62.86
2023-03-07T04:15:10.518Z,61.90
2023-03-07T04:17:39.709Z,62.96
2023-03-07T04:20:17.388Z,63.56
2023-03-07T04:22:47.129Z,63.44
2023-03-07T04:25:15.551Z,63.56
2023-03-07T04:27:43.568Z,63.55
2023-03-07T04:30:12.755Z,63.33
2023-03-07T04:32:42.559Z,62.90
2023-03-07T04:35:12.271Z,63.31
2023-03-07T04:37:40.638Z,62.70
2023-03-07T04:40:09.777Z,62.75
2023-03-07T04:42:38.047Z,62.63
2023-03-07T04:45:07.130Z,62.99
2023-03-07T04:47:35.332Z,63.27
2023-03-07T04:50:03.722Z,62.62
2023-03-07T04:52:35.149Z,62.86
2023-03-07T04:55:03.475Z,62.53
2023-03-07T04:57:31.470Z,63.11
2023-03-07T05:00:00.419Z,63.01
2023-03-07T05:02:28.847Z,63.26
2023-03-07T05:04:57.602Z,63.40
2023-03-07T05:07:25.780Z,63.47
2023-03-07T05:09:56.146Z,63.08
2023-03-07T05:12:24.893Z,62.95
2023-03-07T05:14:53.824Z,62.79
2023-03-07T05:17:22.438Z,62.49
2023-03-07T05:19:50.731Z,62.33
2023-03-07T05:22:19.431Z,62.46
2023-03-07T05:24:47.631Z,62.05
2023-03-07T05:27:17.519Z,61.70
2023-03-07T05:29:45.628Z,61.76
2023-03-07T05:32:13.818Z,61.26
2023-03-07T05:34:42.133Z,61.56
2023-03-07T05:37:10.630Z,61.61
2023-03-07T05:39:38.714Z,61.49
2023-03-07T05:42:07.345Z,61.76
2023-03-07T05:44:37.891Z,61.62
2023-03-07T05:47:06.835Z,61.14
2023-03-07T05:49:35.595Z,61.39
2023-03-07T05:52:03.812Z,60.57
2023-03-07T05:54:31.828Z,60.87
2023-03-07T05:57:00.306Z,60.51
2023-03-07T05:59:28.455Z,60.54
2023-03-07T06:01:57.799Z,60.03
2023-03-07T06:04:26.226Z,60.22
2023-03-07T06:06:54.277Z,59.03
2023-03-07T06:09:23.634Z,59.73
2023-03-07T06:11:52.427Z,58.24
2023-03-07T06:14:20.610Z,58.54
2023-03-07T06:16:48.805Z,57.50
2023-03-07T06:19:18.457Z,58.09
2023-03-07T06:21:47.018Z,56.90
2023-03-07T06:24:15.261Z,56.92
2023-03-07T06:26:44.345Z,56.71
2023-03-07T06:29:13.104Z,56.08
2023-03-07T06:31:41.367Z,56.05
2023-03-07T06:34:09.716Z,55.92
2023-03-07T06:36:39.069Z,55.00
2023-03-07T06:39:07.560Z,54.54
2023-03-07T06:41:36.470Z,54.24
2023-03-07T06:44:05.848Z,54.42
2023-03-07T06:46:34.728Z,54.06
2023-03-07T06:49:07.891Z,53.75
2023-03-07T06:51:37.934Z,53.75
2023-03-07T06:54:09.031Z,54.19
2023-03-07T06:56:37.459Z,53.39
2023-03-07T06:59:05.657Z,53.16
2023-03-07T07:01:35.707Z,52.44
2023-03-07T07:04:04.297Z,51.87
2023-03-07T07:06:32.706Z,51.86
2023-03-07T07:09:01.030Z,52.51
2023-03-07T07:11:35.274Z,52.30
2023-03-07T07:14:04.960Z,51.93
2023-03-07T07:16:36.380Z,52.33
2023-03-07T07:19:07.757Z,51.47
2023-03-07T07:21:37.004Z,51.72
2023-03-07T07:24:06.007Z,51.28
2023-03-07T07:26:35.600Z,51.34
2023-03-07T07:29:03.705Z,51.19
2023-03-07T07:31:32.146Z,51.60
2023-03-07T07:34:00.623Z,52.06
2023-03-07T07:36:32.091Z,51.67
2023-03-07T07:39:00.255Z,52.20
2023-03-07T07:41:28.444Z,51.93
2023-03-07T07:44:01.265Z,52.21
2023-03-07T07:46:36.693Z,52.20
2023-03-07T07:49:06.398Z,51.70
2023-03-07T07:51:34.899Z,51.69
2023-03-07T07:54:03.220Z,51.23
2023-03-07T07:56:31.342Z,50.90
2023-03-07T07:59:00.640Z,50.29
2023-03-07T08:01:29.465Z,49.61
2023-03-07T08:03:57.586Z,48.24
2023-03-07T08:06:27.982Z,46.34
2023-03-07T08:08:56.394Z,45.29
2023-03-07T08:11:25.093Z,43.70
2023-03-07T08:13:53.242Z,43.61
2023-03-07T08:16:24.307Z,43.36
2023-03-07T08:18:54.613Z,43.52
2023-03-07T08:21:22.903Z,44.28
2023-03-07T08:23:51.107Z,44.13
2023-03-07T08:26:19.260Z,44.19
2023-03-07T08:28:47.998Z,44.17
2023-03-07T08:31:20.205Z,44.57
2023-03-07T08:33:49.778Z,44.80
2023-03-07T08:36:18.146Z,44.37
2023-03-07T08:38:50.930Z,44.67
2023-03-07T08:41:20.551Z,44.15
2023-03-07T08:43:48.680Z,44.31
2023-03-07T08:46:17.049Z,44.07
2023-03-07T08:48:45.110Z,43.46
2023-03-07T08:51:17.444Z,42.47
2023-03-07T08:53:46.461Z,41.71
2023-03-07T08:56:19.538Z,41.52
2023-03-07T08:58:47.943Z,41.16
2023-03-07T09:01:15.978Z,40.74
2023-03-07T09:03:44.246Z,41.46
2023-03-07T09:06:18.988Z,40.53
2023-03-07T09:08:47.459Z,40.48
2023-03-07T09:11:15.879Z,40.42
2023-03-07T09:13:51.801Z,39.92
2023-03-07T09:16:21.132Z,39.42
2023-03-07T09:18:49.132Z,40.41
2023-03-07T09:21:18.555Z,41.01
2023-03-07T09:23:46.649Z,40.75
2023-03-07T09:26:14.648Z,40.92
2023-03-07T09:28:43.148Z,40.90
2023-03-07T09:31:13.807Z,40.91
2023-03-07T09:33:43.483Z,40.85
2023-03-07T09:36:13.609Z,41.22
2023-03-07T09:38:43.282Z,41.59
2023-03-07T09:41:31.819Z,42.39
2023-03-07T09:44:07.815Z,42.34
2023-03-07T09:47:11.030Z,43.16
2023-03-07T09:49:45.711Z,43.72
2023-03-07T09:52:16.717Z,44.02
2023-03-07T09:54:49.539Z,44.03
2023-03-07T09:57:23.256Z,44.83
2023-03-07T09:59:55.288Z,45.10
2023-03-07T10:02:29.169Z,45.56
2023-03-07T10:05:05.854Z,45.57
2023-03-07T10:07:35.603Z,45.44
2023-03-07T10:10:08.254Z,45.42
2023-03-07T10:12:58.592Z,45.50
2023-03-07T10:15:42.466Z,45.81
2023-03-07T10:18:22.469Z,45.59
2023-03-07T10:20:58.264Z,45.28
2023-03-07T10:23:37.256Z,45.07
2023-03-07T10:26:12.025Z,45.56
2023-03-07T10:28:42.823Z,44.90
2023-03-07T10:31:21.821Z,44.29
2023-03-07T10:33:51.381Z,44.77
2023-03-07T10:36:22.348Z,44.88
2023-03-07T10:39:01.102Z,44.61
2023-03-07T10:41:31.289Z,44.52
2023-03-07T10:43:59.759Z,44.15
2023-03-07T10:46:30.317Z,44.31
2023-03-07T10:49:10.442Z,44.52
2023-03-07T10:51:50.675Z,44.07
2023-03-07T10:54:21.224Z,43.84
2023-03-07T10:57:10.074Z,43.89
2023-03-07T10:59:40.031Z,44.41
2023-03-07T11:02:30.788Z,43.59
2023-03-07T11:04:59.371Z,44.33
2023-03-07T11:07:30.440Z,43.80
2023-03-07T11:09:59.985Z,44.88
2023-03-07T11:12:32.043Z,45.17
2023-03-07T11:15:12.214Z,44.97
2023-03-07T11:17:43.616Z,44.94
2023-03-07T11:20:22.231Z,44.43
2023-03-07T11:22:50.922Z,44.37
2023-03-07T11:25:23.254Z,44.75
2023-03-07T11:27:54.852Z,44.56
2023-03-07T11:30:26.311Z,45.03
2023-03-07T11:33:11.534Z,45.18
2023-03-07T11:35:59.974Z,45.02
2023-03-07T11:38:46.133Z,45.55
2023-03-07T11:41:21.422Z,45.47
2023-03-07T11:44:05.410Z,45.98
2023-03-07T11:46:43.279Z,46.77
2023-03-07T11:49:30.662Z,45.94
2023-03-07T11:52:12.534Z,45.96
2023-03-07T11:54:47.555Z,46.18
2023-03-07T11:57:25.416Z,46.63
2023-03-07T12:00:12.821Z,46.14
2023-03-07T12:02:57.973Z,46.36
2023-03-07T12:05:49.055Z,46.20
2023-03-07T12:08:39.255Z,46.21
2023-03-07T12:11:24.968Z,46.27
2023-03-07T12:14:02.017Z,46.79
2023-03-07T12:16:41.956Z,46.21
2023-03-07T12:19:39.601Z,45.94
2023-03-07T12:22:23.384Z,45.56
2023-03-07T12:25:03.240Z,46.40
2023-03-07T12:27:36.194Z,46.62
2023-03-07T12:30:11.046Z,46.34
2023-03-07T12:32:41.019Z,46.46
2023-03-07T12:35:23.640Z,46.46
2023-03-07T12:37:59.859Z,45.96
2023-03-07T12:40:36.794Z,46.23
2023-03-07T12:43:15.972Z,45.40
2023-03-07T12:45:48.923Z,45.55
2023-03-07T12:48:27.415Z,45.03
2023-03-07T12:51:00.036Z,45.59
2023-03-07T12:53:34.528Z,45.41
2023-03-07T12:56:11.088Z,45.49
2023-03-07T12:58:43.981Z,45.25
2023-03-07T13:01:18.617Z,44.92
2023-03-07T13:03:54.821Z,44.03
2023-03-07T13:06:25.253Z,44.44
2023-03-07T13:08:56.563Z,44.38
2023-03-07T13:11:26.710Z,45.05
2023-03-07T13:13:58.385Z,45.13
2023-03-07T13:16:43.699Z,44.19
2023-03-07T13:19:55.122Z,44.15
2023-03-07T13:22:58.468Z,44.47
2023-03-07T13:25:59.034Z,42.92
2023-03-07T13:28:48.739Z,42.85
2023-03-07T13:31:46.390Z,43.49
2023-03-07T13:34:48.835Z,43.20
2023-03-07T13:37:55.461Z,43.31
2023-03-07T13:40:54.105Z,44.07
2023-03-07T13:44:00.159Z,44.18
2023-03-07T13:46:32.355Z,44.60
2023-03-07T13:49:02.591Z,43.95
2023-03-07T13:51:30.981Z,45.39
2023-03-07T13:54:04.519Z,44.52
2023-03-07T13:56:36.192Z,44.87
2023-03-07T13:59:15.865Z,45.42
2023-03-07T14:01:47.547Z,45.10
2023-03-07T14:04:33.143Z,44.82
2023-03-07T14:07:13.469Z,45.80
2023-03-07T14:09:48.045Z,45.41
2023-03-07T14:12:23.196Z,44.46
2023-03-07T14:15:05.474Z,45.52
2023-03-07T14:17:53.828Z,45.43
2023-03-07T14:20:29.083Z,44.68
2023-03-07T14:23:11.924Z,45.17
2023-03-07T14:25:42.817Z,45.24
2023-03-07T14:28:21.349Z,45.30
2023-03-07T14:30:57.730Z,45.52
2023-03-07T14:33:32.547Z,45.07
2023-03-07T14:36:01.453Z,45.58
2023-03-07T14:38:30.074Z,45.38
2023-03-07T14:41:21.561Z,46.52
2023-03-07T14:44:01.894Z,46.36
2023-03-07T14:46:38.959Z,45.14
2023-03-07T14:49:20.573Z,46.17
2023-03-07T14:51:49.352Z,45.64
2023-03-07T14:54:20.700Z,46.33
2023-03-07T14:56:52.739Z,46.08
2023-03-07T14:59:28.625Z,46.46
2023-03-07T15:01:58.664Z,46.17
2023-03-07T15:04:31.418Z,46.43
2023-03-07T15:07:01.392Z,46.90
2023-03-07T15:09:30.037Z,46.79
2023-03-07T15:12:04.447Z,46.65
2023-03-07T15:14:41.559Z,46.77
2023-03-07T15:17:16.435Z,47.07
2023-03-07T15:19:48.249Z,47.18
2023-03-07T15:22:20.506Z,47.50
2023-03-07T15:24:51.924Z,46.95
2023-03-07T15:27:25.746Z,46.98
2023-03-07T15:29:55.161Z,47.50
2023-03-07T15:32:33.052Z,47.56
2023-03-07T15:35:03.204Z,47.57
2023-03-07T15:37:33.357Z,47.51
2023-03-07T15:40:02.694Z,48.06
2023-03-07T15:42:34.617Z,47.95
2023-03-07T15:45:05.065Z,48.12
2023-03-07T15:47:33.929Z,48.08
2023-03-07T15:50:04.779Z,48.58
2023-03-07T15:52:35.498Z,48.61
2023-03-07T15:55:08.192Z,48.58
2023-03-07T15:57:48.533Z,49.58
2023-03-07T16:00:20.659Z,49.12
2023-03-07T16:02:49.833Z,49.06
2023-03-07T16:05:33.837Z,49.56
2023-03-07T16:08:02.119Z,49.00
2023-03-07T16:10:32.984Z,49.70
2023-03-07T16:13:03.089Z,49.15
2023-03-07T16:15:31.525Z,49.81
2023-03-07T16:17:59.635Z,50.12
2023-03-07T16:20:29.750Z,49.98
2023-03-07T16:22:58.361Z,50.67
2023-03-07T16:25:29.651Z,50.22
2023-03-07T16:27:59.901Z,49.75
2023-03-07T16:30:30.348Z,49.77
2023-03-07T16:32:58.418Z,50.64
2023-03-07T16:35:28.832Z,50.88
2023-03-07T16:37:57.105Z,51.11
2023-03-07T16:40:26.273Z,50.97
2023-03-07T16:42:55.385Z,50.85
2023-03-07T16:45:26.772Z,51.37
2023-03-07T16:47:58.036Z,50.74
2023-03-07T16:50:28.725Z,50.88
2023-03-07T16:52:57.018Z,50.88
2023-03-07T16:55:26.448Z,50.22
2023-03-07T16:57:57.468Z,50.20
2023-03-07T17:00:28.097Z,50.04
2023-03-07T17:03:02.186Z,49.96
2023-03-07T17:05:30.694Z,49.76
2023-03-07T17:07:59.843Z,50.28
2023-03-07T17:10:29.000Z,50.18
2023-03-07T17:12:58.400Z,50.39
2023-03-07T17:15:31.081Z,50.19
2023-03-07T17:18:01.817Z,50.59
2023-03-07T17:20:30.186Z,50.10
2023-03-07T17:22:58.570Z,50.64
2023-03-07T17:25:27.963Z,50.95
2023-03-07T17:28:00.007Z,50.91
2023-03-07T17:30:30.949Z,51.07
2023-03-07T17:33:01.174Z,50.94
2023-03-07T17:35:30.614Z,50.67
2023-03-07T17:37:58.965Z,50.95
2023-03-07T17:40:27.041Z,50.41
2023-03-07T17:42:57.433Z,50.94
2023-03-07T17:45:26.082Z,50.83
2023-03-07T17:47:55.150Z,50.73
2023-03-07T17:50:25.713Z,50.59
2023-03-07T17:52:55.402Z,51.52
2023-03-07T17:55:25.358Z,51.51
2023-03-07T17:57:53.855Z,51.47
2023-03-07T18:00:23.106Z,51.14
2023-03-07T18:02:51.236Z,51.02
2023-03-07T18:05:20.264Z,51.66
2023-03-07T18:07:51.527Z,50.83
2023-03-07T18:10:19.803Z,51.32
2023-03-07T18:12:49.911Z,52.03
2023-03-07T18:15:20.378Z,52.34
2023-03-07T18:17:49.438Z,51.52
2023-03-07T18:20:22.485Z,52.17
2023-03-07T18:22:52.009Z,51.50
2023-03-07T18:25:20.258Z,51.59
2023-03-07T18:27:48.664Z,52.46
2023-03-07T18:30:17.702Z,51.78
2023-03-07T18:32:45.897Z,52.15
2023-03-07T18:35:15.638Z,51.70
2023-03-07T18:37:45.223Z,52.02
2023-03-07T18:40:15.584Z,52.26
2023-03-07T18:42:43.792Z,52.37
2023-03-07T18:45:12.903Z,52.53
2023-03-07T18:47:41.129Z,52.67
2023-03-07T18:50:11.067Z,52.09
2023-03-07T18:52:39.165Z,53.04
2023-03-07T18:55:07.830Z,52.49
2023-03-07T18:57:37.201Z,52.77
2023-03-07T19:00:06.578Z,52.69
2023-03-07T19:02:34.775Z,53.09
2023-03-07T19:05:02.876Z,53.13
2023-03-07T19:07:31.476Z,53.19
2023-03-07T19:09:59.837Z,52.81
2023-03-07T19:12:27.866Z,53.69
2023-03-07T19:14:58.563Z,54.14
2023-03-07T19:17:26.679Z,54.04
2023-03-07T19:19:59.228Z,54.01
2023-03-07T19:22:30.307Z,54.20
2023-03-07T19:24:58.691Z,54.29
2023-03-07T19:27:29.044Z,53.90
2023-03-07T19:29:58.691Z,54.07
2023-03-07T19:32:27.289Z,53.57
2023-03-07T19:34:55.942Z,53.61
2023-03-07T19:37:24.340Z,53.43
2023-03-07T19:39:53.139Z,52.88
2023-03-07T19:42:21.540Z,53.18
2023-03-07T19:44:49.679Z,52.89
2023-03-07T19:47:19.051Z,53.07
2023-03-07T19:49:48.103Z,52.27
2023-03-07T19:52:16.463Z,52.59
2023-03-07T19:54:45.486Z,52.39
2023-03-07T19:57:16.092Z,52.36
2023-03-07T19:59:44.373Z,53.04
2023-03-07T20:02:13.318Z,53.23
2023-03-07T20:04:42.646Z,53.30
2023-03-07T20:07:10.672Z,54.28
2023-03-07T20:09:39.020Z,54.62
2023-03-07T20:12:07.921Z,54.75
2023-03-07T20:14:42.486Z,54.10
2023-03-07T20:17:11.638Z,54.18
2023-03-07T20:19:39.981Z,54.50
2023-03-07T20:22:09.433Z,54.54
2023-03-07T20:24:37.392Z,54.87
2023-03-07T20:27:07.473Z,55.31
2023-03-07T20:29:35.870Z,55.83
2023-03-07T20:32:03.972Z,55.43
2023-03-07T20:34:32.102Z,55.15
2023-03-07T20:37:00.251Z,55.13
2023-03-07T20:39:30.639Z,55.31
2023-03-07T20:41:58.863Z,55.22
2023-03-07T20:44:28.051Z,55.11
2023-03-07T20:46:56.178Z,55.51
2023-03-07T20:49:24.294Z,55.62
2023-03-07T20:51:52.571Z,56.03
2023-03-07T20:54:20.697Z,56.32
2023-03-07T20:56:50.176Z,56.31
2023-03-07T20:59:19.752Z,56.89
2023-03-07T21:01:48.463Z,56.15
2023-03-07T21:04:18.509Z,56.66
2023-03-07T21:06:47.810Z,56.58
2023-03-07T21:09:18.536Z,56.28
2023-03-07T21:11:49.086Z,57.29
2023-03-07T21:14:20.059Z,57.19
2023-03-07T21:16:50.008Z,57.67
2023-03-07T21:19:18.757Z,57.10
2023-03-07T21:21:46.859Z,57.34
2023-03-07T21:24:15.749Z,57.38
2023-03-07T21:26:44.052Z,58.39
2023-03-07T21:29:13.805Z,58.38
2023-03-07T21:31:43.386Z,58.48
2023-03-07T21:34:15.063Z,59.18
2023-03-07T21:36:43.642Z,59.58
2023-03-07T21:39:12.492Z,59.29
2023-03-07T21:41:40.568Z,59.06
2023-03-07T21:44:08.928Z,58.29
2023-03-07T21:46:37.402Z,59.02
2023-03-07T21:49:07.632Z,59.55
2023-03-07T21:51:35.805Z,60.91
2023-03-07T21:54:03.992Z,60.24
2023-03-07T21:56:32.037Z,61.41
2023-03-07T21:58:59.975Z,61.76
2023-03-07T22:01:30.289Z,62.38
2023-03-07T22:04:00.270Z,62.10
2023-03-07T22:06:30.114Z,62.74
2023-03-07T22:08:59.914Z,62.26
2023-03-07T22:11:28.100Z,62.98
2023-03-07T22:13:56.331Z,62.92
2023-03-07T22:16:24.519Z,63.79
2023-03-07T22:18:54.104Z,63.69
2023-03-07T22:21:25.082Z,64.08
2023-03-07T22:23:57.796Z,63.86
2023-03-07T22:26:29.502Z,63.66
2023-03-07T22:28:58.045Z,64.29
2023-03-07T22:31:26.548Z,64.48
2023-03-07T22:33:54.562Z,64.68
2023-03-07T22:36:22.773Z,64.77
2023-03-07T22:38:56.196Z,64.91
2023-03-07T22:41:25.631Z,64.18
2023-03-07T22:43:54.018Z,64.07
2023-03-07T22:46:22.402Z,64.03
2023-03-07T22:48:53.047Z,64.02
2023-03-07T22:51:21.262Z,63.97
2023-03-07T22:53:49.560Z,63.72
2023-03-07T22:56:20.775Z,63.48
2023-03-07T22:58:48.799Z,63.49
2023-03-07T23:01:22.332Z,63.43
2023-03-07T23:03:51.540Z,63.24
2023-03-07T23:06:20.474Z,63.36
2023-03-07T23:08:50.511Z,62.93
2023-03-07T23:11:21.479Z,62.70
2023-03-07T23:13:49.450Z,62.93
2023-03-07T23:16:19.834Z,62.11
2023-03-07T23:18:50.636Z,62.93
2023-03-07T23:21:20.557Z,62.48
2023-03-07T23:23:49.097Z,62.79
2023-03-07T23:26:20.134Z,62.33
2023-03-07T23:28:48.621Z,62.45
2023-03-07T23:31:18.691Z,61.79
2023-03-07T23:33:46.853Z,61.92
2023-03-07T23:36:14.936Z,62.39
2023-03-07T23:38:44.390Z,62.27
2023-03-07T23:41:12.388Z,62.26
2023-03-07T23:43:41.724Z,62.46
2023-03-07T23:46:09.952Z,62.38
2023-03-07T23:48:38.138Z,62.57
2023-03-07T23:51:06.353Z,62.14
2023-03-07T23:53:34.526Z,62.61
2023-03-07T23:56:06.197Z,62.56
2023-03-07T23:58:34.547Z,62.79
